Kayseri/Erkilet, Turkey
Current Conditions -  °F | °C
As of 7:50 PM on Thursday 18 Dec 2014 (Local Time) from LTAU Reporting Station
Broken Clouds Broken Clouds  
Wind Chill: 45°   Ceiling: 10000
Heat Index: 45°   Visibility: 6mi
Dew Point: 34°   Wind: 0mph
Humidity: 66%   Direction: NA
Pressure: 30.09"   Gusts: NA
Location:  38.82°N, 35.45°E
Report Text: LTAU 181650Z 00000KT 9999 SCT040 BKN100 07/01 Q1019 NOSIG
Loading
Personal Weather Stations






























Interactive Weather Map New forecast layout! Learn more

10-Day Weather Forecast

Advertisements
Track Severe Weather on mobile